createdAt,value
2022-12-25T00:02:08.227Z,100347.50
2022-12-25T00:04:37.981Z,100353.94
2022-12-25T00:07:07.463Z,100355.52
2022-12-25T00:09:37.226Z,100353.39
2022-12-25T00:12:07.134Z,100354.92
2022-12-25T00:14:36.876Z,100362.39
2022-12-25T00:17:06.570Z,100362.52
2022-12-25T00:19:36.490Z,100368.02
2022-12-25T00:22:06.749Z,100371.09
2022-12-25T00:24:36.503Z,100369.48
2022-12-25T00:27:07.059Z,100378.95
2022-12-25T00:29:37.388Z,100371.83
2022-12-25T00:32:07.257Z,100371.71
2022-12-25T00:34:37.075Z,100374.66
2022-12-25T00:37:06.714Z,100374.66
2022-12-25T00:39:36.537Z,100383.50
2022-12-25T00:42:21.572Z,100389.30
2022-12-25T00:44:52.161Z,100390.45
2022-12-25T00:47:21.747Z,100390.05
2022-12-25T00:49:51.865Z,100388.64
2022-12-25T00:52:21.436Z,100377.89
2022-12-25T00:54:51.197Z,100385.56
2022-12-25T00:57:20.885Z,100385.30
2022-12-25T00:59:50.699Z,100385.30
2022-12-25T01:02:26.511Z,100389.03
2022-12-25T01:04:57.970Z,100391.27
2022-12-25T01:07:28.165Z,100404.69
2022-12-25T01:10:15.443Z,100410.03
2022-12-25T01:12:45.452Z,100407.62
2022-12-25T01:15:15.784Z,100413.12
2022-12-25T01:17:46.252Z,100407.73
2022-12-25T01:20:17.855Z,100419.06
2022-12-25T01:22:47.764Z,100423.74
2022-12-25T01:25:17.649Z,100423.74
2022-12-25T01:27:47.439Z,100426.42
2022-12-25T01:30:17.103Z,100437.72
2022-12-25T01:32:46.855Z,100437.42
2022-12-25T01:35:16.409Z,100435.50
2022-12-25T01:37:46.264Z,100438.47
2022-12-25T01:40:15.871Z,100436.16
2022-12-25T01:42:45.886Z,100438.30
2022-12-25T01:45:37.054Z,100439.09
2022-12-25T01:48:09.973Z,100438.79
2022-12-25T01:50:42.525Z,100437.23
2022-12-25T01:53:12.699Z,100431.81
2022-12-25T01:55:45.167Z,100436.28
2022-12-25T01:58:15.264Z,100438.11
2022-12-25T02:00:45.302Z,100439.14
2022-12-25T02:03:15.347Z,100438.84
2022-12-25T02:05:46.920Z,100435.29
2022-12-25T02:08:19.394Z,100435.29
2022-12-25T02:10:49.517Z,100433.98
2022-12-25T02:13:20.665Z,100425.33
2022-12-25T02:16:02.105Z,100413.53
2022-12-25T02:18:46.830Z,100438.62
2022-12-25T02:21:34.346Z,100442.22
2022-12-25T02:24:09.716Z,100443.23
2022-12-25T02:27:15.606Z,100447.63
2022-12-25T02:29:48.091Z,100446.05
2022-12-25T02:32:32.570Z,100451.03
2022-12-25T02:35:08.166Z,100446.96
2022-12-25T02:37:45.385Z,100455.40
2022-12-25T02:40:17.939Z,100457.78
2022-12-25T02:43:11.191Z,100465.97
2022-12-25T02:46:17.299Z,100461.31
2022-12-25T02:49:03.518Z,100468.02
2022-12-25T02:51:54.174Z,100458.61
2022-12-25T02:54:47.328Z,100463.02
2022-12-25T02:57:37.431Z,100469.02
2022-12-25T03:00:27.604Z,100472.75
2022-12-25T03:03:18.001Z,100485.02
2022-12-25T03:06:06.025Z,100487.70
2022-12-25T03:08:41.062Z,100481.67
2022-12-25T03:11:31.975Z,100482.17
2022-12-25T03:14:27.617Z,100478.14
2022-12-25T03:16:59.977Z,100479.00
2022-12-25T03:19:53.202Z,100492.37
2022-12-25T03:22:49.165Z,100483.97
2022-12-25T03:25:37.757Z,100490.32
2022-12-25T03:28:07.887Z,100499.80
2022-12-25T03:31:04.931Z,100507.34
2022-12-25T03:33:52.691Z,100508.19
2022-12-25T03:36:34.128Z,100514.41
2022-12-25T03:39:23.372Z,100520.66
2022-12-25T03:42:14.005Z,100525.17
2022-12-25T03:44:53.884Z,100518.34
2022-12-25T03:48:02.596Z,100525.12
2022-12-25T03:50:53.302Z,100526.28
2022-12-25T03:53:44.131Z,100534.76
2022-12-25T03:56:32.605Z,100532.30
2022-12-25T03:59:23.922Z,100539.91
2022-12-25T04:02:10.162Z,100530.39
2022-12-25T04:04:58.100Z,100532.58
2022-12-25T04:07:45.365Z,100526.59
2022-12-25T04:10:32.787Z,100532.63
2022-12-25T04:13:20.834Z,100533.71
2022-12-25T04:16:10.358Z,100532.81
2022-12-25T04:18:58.270Z,100539.33
2022-12-25T04:21:46.105Z,100529.54
2022-12-25T04:24:33.436Z,100536.89
2022-12-25T04:27:21.236Z,100541.85
2022-12-25T04:30:08.846Z,100542.87
2022-12-25T04:32:56.734Z,100542.87
2022-12-25T04:35:44.049Z,100543.91
2022-12-25T04:38:13.927Z,100533.80
2022-12-25T04:40:43.663Z,100537.20
2022-12-25T04:43:13.161Z,100543.97
2022-12-25T04:45:42.914Z,100547.88
2022-12-25T04:48:12.399Z,100547.22
2022-12-25T04:50:42.152Z,100543.36
2022-12-25T04:53:11.687Z,100545.75
2022-12-25T04:55:41.427Z,100546.23
2022-12-25T04:58:11.260Z,100548.03
2022-12-25T05:00:41.373Z,100548.58
2022-12-25T05:03:11.223Z,100545.00
2022-12-25T05:05:42.051Z,100552.18
2022-12-25T05:08:11.838Z,100559.37
2022-12-25T05:10:42.235Z,100552.58
2022-12-25T05:13:11.778Z,100562.11
2022-12-25T05:15:43.487Z,100566.52
2022-12-25T05:18:13.341Z,100565.62
2022-12-25T05:20:43.168Z,100571.50
2022-12-25T05:23:13.249Z,100576.90
2022-12-25T05:25:43.206Z,100581.40
2022-12-25T05:28:13.091Z,100576.64
2022-12-25T05:30:42.977Z,100579.91
2022-12-25T05:33:12.690Z,100577.23
2022-12-25T05:35:42.479Z,100579.58
2022-12-25T05:38:12.047Z,100585.53
2022-12-25T05:40:41.864Z,100576.33
2022-12-25T05:43:11.502Z,100589.35
2022-12-25T05:45:41.247Z,100589.91
2022-12-25T05:48:11.523Z,100580.30
2022-12-25T05:50:41.615Z,100581.08
2022-12-25T05:53:13.499Z,100585.73
2022-12-25T05:55:44.776Z,100585.87
2022-12-25T05:58:14.806Z,100594.22
2022-12-25T06:00:45.349Z,100599.95
2022-12-25T06:03:15.031Z,100599.95
2022-12-25T06:05:44.873Z,100599.37
2022-12-25T06:08:14.641Z,100601.77
2022-12-25T06:10:44.847Z,100600.32
2022-12-25T06:13:14.548Z,100605.72
2022-12-25T06:15:44.423Z,100613.88
2022-12-25T06:18:13.937Z,100626.15
2022-12-25T06:20:43.736Z,100628.67
2022-12-25T06:23:13.320Z,100621.20
2022-12-25T06:25:43.551Z,100621.90
2022-12-25T06:28:13.014Z,100624.88
2022-12-25T06:30:42.796Z,100637.91
2022-12-25T06:33:12.304Z,100644.74
2022-12-25T06:35:42.099Z,100651.91
2022-12-25T06:38:11.699Z,100660.33
2022-12-25T06:40:41.489Z,100660.73
2022-12-25T06:43:10.941Z,100658.44
2022-12-25T06:45:40.776Z,100657.37
2022-12-25T06:48:10.329Z,100660.98
2022-12-25T06:50:44.228Z,100670.98
2022-12-25T06:53:13.965Z,100661.77
2022-12-25T06:55:43.830Z,100661.77
2022-12-25T06:58:13.478Z,100662.35
2022-12-25T07:00:43.314Z,100664.95
2022-12-25T07:03:16.106Z,100667.22
2022-12-25T07:05:47.389Z,100674.73
2022-12-25T07:08:17.160Z,100673.99
2022-12-25T07:10:46.959Z,100674.63
2022-12-25T07:13:16.715Z,100670.27
2022-12-25T07:15:46.505Z,100666.24
2022-12-25T07:18:16.263Z,100670.59
2022-12-25T07:20:46.063Z,100674.60
2022-12-25T07:23:15.512Z,100673.64
2022-12-25T07:25:46.826Z,100674.80
2022-12-25T07:28:16.554Z,100682.67
2022-12-25T07:30:46.332Z,100687.73
2022-12-25T07:33:16.316Z,100683.83
2022-12-25T07:35:46.222Z,100689.82
2022-12-25T07:38:15.657Z,100688.83
2022-12-25T07:40:47.069Z,100679.94
2022-12-25T07:43:16.707Z,100689.31
2022-12-25T07:45:47.134Z,100685.03
2022-12-25T07:48:17.193Z,100675.67
2022-12-25T07:50:46.937Z,100671.80
2022-12-25T07:53:16.667Z,100682.17
2022-12-25T07:55:46.445Z,100684.52
2022-12-25T07:58:21.430Z,100681.91
2022-12-25T08:00:47.740Z,100680.49
2022-12-25T08:03:17.811Z,100678.08
2022-12-25T08:05:47.703Z,100673.81
2022-12-25T08:08:17.144Z,100682.31
2022-12-25T08:10:48.733Z,100684.73
2022-12-25T08:13:18.399Z,100688.34
2022-12-25T08:15:48.344Z,100680.19
2022-12-25T08:18:17.787Z,100681.00
2022-12-25T08:20:47.578Z,100680.48
2022-12-25T08:23:17.343Z,100679.67
2022-12-25T08:25:47.132Z,100689.97
2022-12-25T08:28:16.942Z,100687.98
2022-12-25T08:30:46.767Z,100696.16
2022-12-25T08:33:16.368Z,100705.83
2022-12-25T08:35:46.126Z,100702.33
2022-12-25T08:38:15.630Z,100709.13
2022-12-25T08:40:45.398Z,100707.74
2022-12-25T08:43:14.884Z,100706.30
2022-12-25T08:45:46.195Z,100706.40
2022-12-25T08:48:16.036Z,100705.51
2022-12-25T08:50:50.466Z,100704.52
2022-12-25T08:53:21.110Z,100709.14
2022-12-25T08:55:52.860Z,100711.39
2022-12-25T08:58:22.640Z,100717.73
2022-12-25T09:00:52.583Z,100715.47
2022-12-25T09:03:22.458Z,100719.91
2022-12-25T09:05:53.373Z,100718.35
2022-12-25T09:08:23.524Z,100716.77
2022-12-25T09:10:53.318Z,100715.75
2022-12-25T09:13:22.802Z,100719.70
2022-12-25T09:15:52.604Z,100710.73
2022-12-25T09:18:22.229Z,100707.92
2022-12-25T09:21:02.204Z,100706.49
2022-12-25T09:23:32.644Z,100699.89
2022-12-25T09:26:04.001Z,100703.50
2022-12-25T09:28:34.355Z,100703.80
2022-12-25T09:31:04.437Z,100701.52
2022-12-25T09:33:34.340Z,100705.50
2022-12-25T09:36:07.087Z,100702.83
2022-12-25T09:38:37.383Z,100698.19
2022-12-25T09:41:10.114Z,100695.95
2022-12-25T09:43:54.910Z,100694.84
2022-12-25T09:46:33.200Z,100687.64
2022-12-25T09:49:04.644Z,100684.50
2022-12-25T09:51:37.725Z,100686.44
2022-12-25T09:54:10.403Z,100686.44
2022-12-25T09:56:40.215Z,100679.27
2022-12-25T09:59:15.630Z,100676.97
2022-12-25T10:02:21.877Z,100674.80
2022-12-25T10:05:07.039Z,100678.18
2022-12-25T10:07:57.669Z,100681.41
2022-12-25T10:10:30.503Z,100667.34
2022-12-25T10:13:06.391Z,100672.96
2022-12-25T10:15:54.467Z,100671.97
2022-12-25T10:18:45.433Z,100681.13
2022-12-25T10:21:18.560Z,100679.09
2022-12-25T10:24:00.425Z,100673.94
2022-12-25T10:26:32.666Z,100673.94
2022-12-25T10:29:17.037Z,100665.05
2022-12-25T10:31:56.653Z,100660.63
2022-12-25T10:34:27.820Z,100656.00
2022-12-25T10:36:59.579Z,100643.75
2022-12-25T10:39:29.589Z,100638.31
2022-12-25T10:42:25.268Z,100638.31
2022-12-25T10:44:57.788Z,100633.03
2022-12-25T10:47:30.943Z,100629.14
2022-12-25T10:50:02.281Z,100634.17
2022-12-25T10:52:32.012Z,100632.29
2022-12-25T10:55:04.849Z,100630.89
2022-12-25T10:57:37.945Z,100621.89
2022-12-25T11:00:10.569Z,100620.77
2022-12-25T11:02:41.803Z,100620.01
2022-12-25T11:05:17.422Z,100617.85
2022-12-25T11:07:53.172Z,100609.62
2022-12-25T11:10:28.744Z,100595.47
2022-12-25T11:12:59.601Z,100595.47
2022-12-25T11:15:43.986Z,100592.23
2022-12-25T11:18:23.019Z,100591.59
2022-12-25T11:21:04.814Z,100594.78
2022-12-25T11:23:35.563Z,100597.17
2022-12-25T11:26:09.174Z,100592.16
2022-12-25T11:28:41.671Z,100599.59
2022-12-25T11:31:20.319Z,100601.12
2022-12-25T11:33:59.100Z,100594.08
2022-12-25T11:36:36.481Z,100597.07
2022-12-25T11:39:26.607Z,100590.64
2022-12-25T11:42:02.088Z,100592.24
2022-12-25T11:44:40.636Z,100589.13
2022-12-25T11:47:21.876Z,100592.98
2022-12-25T11:50:00.025Z,100589.02
2022-12-25T11:52:28.869Z,100589.02
2022-12-25T11:55:10.530Z,100590.25
2022-12-25T11:57:42.519Z,100586.11
2022-12-25T12:00:15.487Z,100582.34
2022-12-25T12:02:58.676Z,100577.62
2022-12-25T12:05:35.244Z,100576.48
2022-12-25T12:08:07.483Z,100580.55
2022-12-25T12:10:43.549Z,100575.26
2022-12-25T12:13:34.056Z,100573.88
2022-12-25T12:16:05.487Z,100571.39
2022-12-25T12:18:36.267Z,100560.64
2022-12-25T12:21:09.447Z,100564.89
2022-12-25T12:24:07.740Z,100565.27
2022-12-25T12:26:40.910Z,100568.80
2022-12-25T12:29:28.450Z,100571.84
2022-12-25T12:32:01.337Z,100565.77
2022-12-25T12:34:34.517Z,100568.38
2022-12-25T12:37:10.113Z,100557.23
2022-12-25T12:39:41.442Z,100556.11
2022-12-25T12:42:18.063Z,100562.48
2022-12-25T12:44:50.158Z,100563.02
2022-12-25T12:47:34.852Z,100560.45
2022-12-25T12:50:06.865Z,100560.89
2022-12-25T12:52:40.897Z,100565.60
2022-12-25T12:55:16.796Z,100562.81
2022-12-25T12:57:46.605Z,100569.64
2022-12-25T13:00:19.220Z,100568.02
2022-12-25T13:02:54.943Z,100563.48
2022-12-25T13:05:34.856Z,100550.00
2022-12-25T13:08:30.958Z,100544.19
2022-12-25T13:11:13.140Z,100539.61
2022-12-25T13:13:46.092Z,100542.02
2022-12-25T13:16:24.540Z,100545.38
2022-12-25T13:18:55.826Z,100553.73
2022-12-25T13:21:30.648Z,100549.80
2022-12-25T13:24:10.521Z,100545.55
2022-12-25T13:26:40.845Z,100534.10
2022-12-25T13:29:30.972Z,100542.42
2022-12-25T13:32:03.053Z,100531.52
2022-12-25T13:34:39.436Z,100531.52
2022-12-25T13:37:15.040Z,100530.16
2022-12-25T13:40:02.690Z,100532.98
2022-12-25T13:42:39.901Z,100531.08
2022-12-25T13:45:15.201Z,100522.13
2022-12-25T13:47:51.437Z,100519.20
2022-12-25T13:50:31.953Z,100519.09
2022-12-25T13:53:16.172Z,100510.73
2022-12-25T13:55:52.471Z,100494.44
2022-12-25T13:58:30.848Z,100491.16
2022-12-25T14:01:03.042Z,100500.83
2022-12-25T14:03:46.012Z,100509.80
2022-12-25T14:06:30.394Z,100515.55
2022-12-25T14:09:00.643Z,100517.31
2022-12-25T14:11:33.138Z,100517.03
2022-12-25T14:14:14.861Z,100517.03
2022-12-25T14:16:45.675Z,100523.03
2022-12-25T14:19:27.526Z,100513.91
2022-12-25T14:22:07.982Z,100512.27
2022-12-25T14:24:38.705Z,100512.48
2022-12-25T14:27:20.698Z,100512.34
2022-12-25T14:29:52.828Z,100517.61
2022-12-25T14:32:25.616Z,100519.27
2022-12-25T14:35:03.478Z,100518.95
2022-12-25T14:37:34.343Z,100520.52
2022-12-25T14:40:07.641Z,100527.05
2022-12-25T14:42:39.127Z,100527.38
2022-12-25T14:45:30.088Z,100525.64
2022-12-25T14:48:04.118Z,100522.41
2022-12-25T14:50:39.994Z,100517.38
2022-12-25T14:53:24.848Z,100510.72
2022-12-25T14:55:56.223Z,100507.09
2022-12-25T14:58:31.633Z,100511.43
2022-12-25T15:01:04.021Z,100505.76
2022-12-25T15:03:38.654Z,100506.73
2022-12-25T15:06:20.187Z,100506.73
2022-12-25T15:08:58.337Z,100517.28
2022-12-25T15:11:28.540Z,100519.17
2022-12-25T15:13:58.469Z,100511.27
2022-12-25T15:16:31.351Z,100505.86
2022-12-25T15:19:02.515Z,100497.09
2022-12-25T15:21:34.418Z,100494.47
2022-12-25T15:24:04.834Z,100504.46
2022-12-25T15:26:34.584Z,100505.63
2022-12-25T15:29:06.138Z,100508.14
2022-12-25T15:31:38.712Z,100495.75
2022-12-25T15:34:10.842Z,100494.41
2022-12-25T15:36:40.892Z,100492.27
2022-12-25T15:39:10.762Z,100488.81
2022-12-25T15:41:58.439Z,100485.78
2022-12-25T15:44:28.249Z,100479.95
2022-12-25T15:46:58.893Z,100483.28
2022-12-25T15:49:28.499Z,100483.28
2022-12-25T15:51:58.334Z,100485.84
2022-12-25T15:54:28.258Z,100489.78
2022-12-25T15:57:01.453Z,100497.67
2022-12-25T15:59:31.862Z,100492.25
2022-12-25T16:02:03.288Z,100477.12
2022-12-25T16:04:33.179Z,100485.22
2022-12-25T16:07:03.085Z,100480.89
2022-12-25T16:09:32.870Z,100466.98
2022-12-25T16:12:02.626Z,100457.22
2022-12-25T16:14:32.725Z,100458.08
2022-12-25T16:17:02.574Z,100468.91
2022-12-25T16:19:32.568Z,100453.23
2022-12-25T16:22:02.226Z,100442.01
2022-12-25T16:24:31.998Z,100441.05
2022-12-25T16:27:01.777Z,100428.36
2022-12-25T16:29:31.718Z,100427.84
2022-12-25T16:32:01.791Z,100417.29
2022-12-25T16:34:31.415Z,100412.58
2022-12-25T16:37:01.179Z,100419.03
2022-12-25T16:39:31.131Z,100423.80
2022-12-25T16:42:01.300Z,100421.83
2022-12-25T16:44:31.090Z,100421.82
2022-12-25T16:47:01.417Z,100409.53
2022-12-25T16:49:31.282Z,100404.82
2022-12-25T16:52:01.331Z,100402.23
2022-12-25T16:54:31.159Z,100420.64
2022-12-25T16:57:00.900Z,100426.61
2022-12-25T16:59:32.909Z,100427.34
2022-12-25T17:02:02.822Z,100427.77
2022-12-25T17:04:33.383Z,100425.52
2022-12-25T17:07:03.201Z,100436.48
2022-12-25T17:09:35.367Z,100433.08
2022-12-25T17:12:05.341Z,100419.03
2022-12-25T17:14:36.300Z,100397.27
2022-12-25T17:17:06.598Z,100397.27
2022-12-25T17:19:36.678Z,100385.30
2022-12-25T17:22:07.385Z,100389.19
2022-12-25T17:24:39.492Z,100389.19
2022-12-25T17:27:10.480Z,100376.97
2022-12-25T17:29:40.652Z,100374.91
2022-12-25T17:32:11.666Z,100382.27
2022-12-25T17:34:41.397Z,100384.16
2022-12-25T17:37:10.951Z,100390.53
2022-12-25T17:39:40.815Z,100389.61
2022-12-25T17:42:10.298Z,100388.86
2022-12-25T17:44:40.062Z,100385.22
2022-12-25T17:47:09.929Z,100385.22
2022-12-25T17:49:39.828Z,100385.00
2022-12-25T17:52:09.395Z,100372.89
2022-12-25T17:54:40.722Z,100380.55
2022-12-25T17:57:10.646Z,100370.75
2022-12-25T17:59:40.477Z,100363.73
2022-12-25T18:02:11.850Z,100359.66
2022-12-25T18:04:41.364Z,100359.02
2022-12-25T18:07:10.979Z,100354.73
2022-12-25T18:09:40.831Z,100352.31
2022-12-25T18:12:10.611Z,100340.50
2022-12-25T18:14:40.463Z,100335.63
2022-12-25T18:17:10.429Z,100329.98
2022-12-25T18:19:40.202Z,100314.21
2022-12-25T18:22:09.726Z,100314.21
2022-12-25T18:24:39.843Z,100316.06
2022-12-25T18:27:09.642Z,100314.28
2022-12-25T18:29:39.381Z,100313.22
2022-12-25T18:32:08.990Z,100308.09
2022-12-25T18:34:38.832Z,100294.75
2022-12-25T18:37:08.372Z,100298.00
2022-12-25T18:39:38.142Z,100302.42
2022-12-25T18:42:25.150Z,100300.41
2022-12-25T18:44:55.375Z,100287.55
2022-12-25T18:47:25.175Z,100290.23
2022-12-25T18:49:54.939Z,100285.97
2022-12-25T18:52:48.166Z,100281.81
2022-12-25T18:54:55.900Z,100288.84
2022-12-25T18:57:26.464Z,100283.09
2022-12-25T18:59:56.123Z,100280.42
2022-12-25T19:02:26.327Z,100273.41
2022-12-25T19:04:56.789Z,100265.23
2022-12-25T19:07:27.804Z,100261.55
2022-12-25T19:09:57.534Z,100252.06
2022-12-25T19:12:27.494Z,100253.35
2022-12-25T19:14:57.285Z,100252.73
2022-12-25T19:17:31.880Z,100260.42
2022-12-25T19:19:58.573Z,100260.16
2022-12-25T19:22:28.545Z,100259.89
2022-12-25T19:24:58.481Z,100248.81
2022-12-25T19:27:28.270Z,100246.72
2022-12-25T19:29:58.049Z,100242.81
2022-12-25T19:32:28.105Z,100238.30
2022-12-25T19:34:57.889Z,100238.30
2022-12-25T19:37:27.693Z,100233.42
2022-12-25T19:39:57.642Z,100233.01
2022-12-25T19:42:27.566Z,100226.59
2022-12-25T19:44:57.360Z,100210.44
2022-12-25T19:47:27.169Z,100214.00
2022-12-25T19:50:02.604Z,100208.51
2022-12-25T19:52:30.079Z,100208.51
2022-12-25T19:54:59.981Z,100196.09
2022-12-25T19:57:29.684Z,100201.27
2022-12-25T19:59:59.466Z,100197.70
2022-12-25T20:02:29.674Z,100185.39
2022-12-25T20:04:59.841Z,100176.37
2022-12-25T20:07:29.697Z,100162.77
2022-12-25T20:09:59.570Z,100158.42
2022-12-25T20:12:29.324Z,100153.11
2022-12-25T20:14:59.125Z,100147.55
2022-12-25T20:17:28.943Z,100164.64
2022-12-25T20:19:59.028Z,100163.44
2022-12-25T20:22:28.794Z,100167.85
2022-12-25T20:24:59.365Z,100177.52
2022-12-25T20:27:29.108Z,100180.99
2022-12-25T20:29:58.955Z,100177.83
2022-12-25T20:32:30.315Z,100176.23
2022-12-25T20:34:59.028Z,100162.22
2022-12-25T20:37:28.435Z,100159.61
2022-12-25T20:39:58.467Z,100154.81
2022-12-25T20:42:28.327Z,100149.64
2022-12-25T20:44:58.075Z,100148.93
2022-12-25T20:47:27.872Z,100141.83
2022-12-25T20:49:59.457Z,100152.52
2022-12-25T20:52:29.538Z,100134.83
2022-12-25T20:54:59.417Z,100130.94
2022-12-25T20:57:29.157Z,100131.13
2022-12-25T20:59:59.351Z,100125.13
2022-12-25T21:02:35.875Z,100129.77
2022-12-25T21:05:01.154Z,100133.27
2022-12-25T21:07:30.971Z,100133.27
2022-12-25T21:10:00.760Z,100125.95
2022-12-25T21:12:30.953Z,100116.31
2022-12-25T21:15:00.788Z,100103.41
2022-12-25T21:17:30.556Z,100102.30
2022-12-25T21:20:00.369Z,100102.32
2022-12-25T21:22:30.539Z,100099.94
2022-12-25T21:25:00.295Z,100092.70
2022-12-25T21:27:33.011Z,100087.88
2022-12-25T21:30:15.327Z,100095.84
2022-12-25T21:32:52.320Z,100102.03
2022-12-25T21:35:22.202Z,100095.27
2022-12-25T21:37:52.115Z,100088.72
2022-12-25T21:40:21.639Z,100088.72
2022-12-25T21:42:53.229Z,100095.36
2022-12-25T21:45:23.116Z,100102.33
2022-12-25T21:48:01.411Z,100105.63
2022-12-25T21:50:42.251Z,100109.77
2022-12-25T21:53:16.936Z,100116.78
2022-12-25T21:56:00.813Z,100120.35
2022-12-25T21:58:30.954Z,100113.33
2022-12-25T22:01:03.392Z,100116.06
2022-12-25T22:03:33.308Z,100117.94
2022-12-25T22:06:21.762Z,100103.62
2022-12-25T22:08:51.665Z,100107.15
2022-12-25T22:11:39.063Z,100098.06
2022-12-25T22:14:51.008Z,100101.74
2022-12-25T22:17:27.080Z,100105.34
2022-12-25T22:19:57.316Z,100104.76
2022-12-25T22:22:30.131Z,100096.44
2022-12-25T22:25:02.483Z,100086.12
2022-12-25T22:27:37.942Z,100080.38
2022-12-25T22:30:10.482Z,100072.88
2022-12-25T22:32:41.021Z,100072.03
2022-12-25T22:35:12.577Z,100072.23
2022-12-25T22:37:43.782Z,100060.25
2022-12-25T22:40:16.402Z,100057.96
2022-12-25T22:42:46.591Z,100044.37
2022-12-25T22:45:16.512Z,100044.37
2022-12-25T22:47:46.295Z,100044.31
2022-12-25T22:50:16.788Z,100036.83
2022-12-25T22:52:47.073Z,100031.27
2022-12-25T22:55:19.909Z,100021.13
2022-12-25T22:57:50.360Z,100016.64
2022-12-25T23:00:19.818Z,100022.36
2022-12-25T23:02:49.823Z,100024.32
2022-12-25T23:05:19.788Z,100023.67
2022-12-25T23:07:49.600Z,100038.22
2022-12-25T23:10:19.178Z,100044.40
2022-12-25T23:13:06.288Z,100051.26
2022-12-25T23:15:36.138Z,100057.06
2022-12-25T23:18:24.144Z,100039.42
2022-12-25T23:21:11.591Z,100022.05
2022-12-25T23:23:59.361Z,100021.11
2022-12-25T23:26:29.634Z,100013.55
2022-12-25T23:29:17.019Z,100006.08
2022-12-25T23:31:49.284Z,100010.19
2022-12-25T23:34:19.132Z,100006.06
2022-12-25T23:36:48.972Z,100008.95
2022-12-25T23:39:18.747Z,100015.06
2022-12-25T23:41:49.610Z,100019.33
2022-12-25T23:44:19.134Z,100029.62
2022-12-25T23:46:52.407Z,100027.67
2022-12-25T23:49:20.832Z,100019.72
2022-12-25T23:51:50.881Z,100021.17
2022-12-25T23:54:23.901Z,100019.38
2022-12-25T23:56:54.312Z,100009.27
2022-12-25T23:59:24.148Z,100007.13
